Time,TemperatureF,DewpointF,PressureIn,WindDirection,WindDirectionDegrees,WindSpeedMPH,WindSpeedGustMPH,Humidity,HourlyPrecipIn,Conditions,Clouds,dailyrainin,SolarRadiationWatts/m^2,SoftwareType,DateUTC
2013-07-07 00:01:00,52.0,51.0,-100.00,NW,321,2.0,5.0,98,0.03,,,0.16,0.000000,,2013-07-07 06:01:00,
2013-07-07 00:11:00,52.0,51.0,-100.00,NW,321,2.0,5.0,98,0.03,,,0.16,0.000000,,2013-07-07 06:11:00,
2013-07-07 00:21:00,52.0,51.0,-100.00,NW,321,2.0,5.0,98,0.03,,,0.16,0.000000,,2013-07-07 06:21:00,
2013-07-07 00:32:00,52.0,51.0,-100.00,NW,321,2.0,5.0,98,0.03,,,0.16,0.000000,,2013-07-07 06:32:00,
2013-07-07 01:01:00,52.0,52.0,-100.00,East,101,2.0,5.0,99,0.01,,,0.17,0.000000,,2013-07-07 07:01:00,
2013-07-07 01:11:00,52.0,52.0,-100.00,East,101,2.0,5.0,99,0.01,,,0.17,0.000000,,2013-07-07 07:11:00,
2013-07-07 01:22:00,52.0,52.0,-100.00,East,101,2.0,5.0,99,0.01,,,0.17,0.000000,,2013-07-07 07:22:00,
2013-07-07 01:33:00,52.0,52.0,-100.00,East,101,2.0,5.0,99,0.01,,,0.17,0.000000,,2013-07-07 07:33:00,
2013-07-07 02:02:00,51.0,50.0,-100.00,NE,43,2.0,6.0,98,0.00,,,0.17,0.000000,,2013-07-07 08:02:00,
2013-07-07 02:12:00,51.0,50.0,-100.00,NE,43,2.0,6.0,98,0.00,,,0.17,0.000000,,2013-07-07 08:12:00,
2013-07-07 02:22:00,51.0,50.0,-100.00,NE,43,2.0,6.0,98,0.00,,,0.17,0.000000,,2013-07-07 08:22:00,
2013-07-07 02:33:00,51.0,50.0,-100.00,NE,43,2.0,6.0,98,0.00,,,0.17,0.000000,,2013-07-07 08:33:00,
2013-07-07 03:02:00,49.0,48.0,-100.00,WSW,248,0.0,3.0,98,0.00,,,0.17,0.000000,,2013-07-07 09:02:00,
2013-07-07 03:12:00,49.0,48.0,-100.00,WSW,248,0.0,3.0,98,0.00,,,0.17,0.000000,,2013-07-07 09:12:00,
2013-07-07 03:22:00,49.0,48.0,-100.00,WSW,248,0.0,3.0,98,0.00,,,0.17,0.000000,,2013-07-07 09:22:00,
2013-07-07 03:34:00,49.0,48.0,-100.00,WSW,248,0.0,3.0,98,0.00,,,0.17,0.000000,,2013-07-07 09:34:00,
2013-07-07 04:03:00,47.0,46.0,-100.00,SSE,161,0.0,2.0,98,0.00,,,-99.99,0.000000,,2013-07-07 10:03:00,
2013-07-07 04:12:00,47.0,46.0,-100.00,SSE,161,0.0,2.0,98,0.00,,,-99.99,0.000000,,2013-07-07 10:12:00,
2013-07-07 04:22:00,47.0,46.0,-100.00,SSE,161,0.0,2.0,98,0.00,,,-99.99,0.000000,,2013-07-07 10:22:00,
2013-07-07 04:32:00,47.0,46.0,-100.00,SSE,161,0.0,2.0,98,0.00,,,-99.99,0.000000,,2013-07-07 10:32:00,
2013-07-07 05:02:00,47.0,47.0,-100.00,SE,143,0.0,2.0,99,0.01,,,0.18,0.000000,,2013-07-07 11:02:00,
2013-07-07 05:11:00,47.0,47.0,-100.00,SE,143,0.0,2.0,99,0.01,,,0.18,0.000000,,2013-07-07 11:11:00,
2013-07-07 05:22:00,47.0,47.0,-100.00,SE,143,0.0,2.0,99,0.01,,,0.18,0.000000,,2013-07-07 11:22:00,
2013-07-07 05:34:00,47.0,47.0,-100.00,SE,143,0.0,2.0,99,0.01,,,0.18,0.000000,,2013-07-07 11:34:00,
2013-07-07 06:02:00,45.0,45.0,-100.00,SSW,197,0.0,0.0,99,0.00,,,-99.99,0.000000,,2013-07-07 12:02:00,
2013-07-07 06:12:00,45.0,45.0,-100.00,SSW,197,0.0,0.0,99,0.00,,,-99.99,0.000000,,2013-07-07 12:12:00,
2013-07-07 06:22:00,45.0,45.0,-100.00,SSW,197,0.0,0.0,99,0.00,,,-99.99,0.000000,,2013-07-07 12:22:00,
2013-07-07 06:34:00,45.0,45.0,-100.00,SSW,197,0.0,0.0,99,0.00,,,-99.99,0.000000,,2013-07-07 12:34:00,
2013-07-07 07:02:00,46.0,46.0,-100.00,WNW,283,0.0,0.0,100,0.00,,,0.18,9.000000,,2013-07-07 13:02:00,
2013-07-07 07:11:00,46.0,46.0,-100.00,WNW,283,0.0,0.0,100,0.00,,,0.18,9.000000,,2013-07-07 13:11:00,
2013-07-07 07:22:00,46.0,46.0,-100.00,WNW,283,0.0,0.0,100,0.00,,,0.18,9.000000,,2013-07-07 13:22:00,
2013-07-07 07:34:00,46.0,46.0,-100.00,WNW,283,0.0,0.0,100,0.00,,,0.18,9.000000,,2013-07-07 13:34:00,
2013-07-07 08:02:00,48.0,48.0,-100.00,WNW,289,1.0,2.0,100,0.00,,,0.18,61.000000,,2013-07-07 14:02:00,
2013-07-07 08:12:00,48.0,48.0,-100.00,WNW,289,1.0,2.0,100,0.00,,,0.18,61.000000,,2013-07-07 14:12:00,
2013-07-07 08:22:00,48.0,48.0,-100.00,WNW,289,1.0,2.0,100,0.00,,,0.18,61.000000,,2013-07-07 14:22:00,
2013-07-07 08:33:00,48.0,48.0,-100.00,WNW,289,1.0,2.0,100,0.00,,,0.18,61.000000,,2013-07-07 14:33:00,
2013-07-07 09:02:00,49.0,49.0,-100.00,WSW,257,1.0,4.0,99,0.00,,,0.18,112.000000,,2013-07-07 15:02:00,
2013-07-07 09:11:00,49.0,49.0,-100.00,WSW,257,1.0,4.0,99,0.00,,,0.18,112.000000,,2013-07-07 15:11:00,
2013-07-07 09:22:00,49.0,49.0,-100.00,WSW,257,1.0,4.0,99,0.00,,,0.18,112.000000,,2013-07-07 15:22:00,
2013-07-07 09:33:00,49.0,49.0,-100.00,WSW,257,1.0,4.0,99,0.00,,,0.18,112.000000,,2013-07-07 15:33:00,
2013-07-07 10:01:00,56.0,52.0,-100.00,WSW,252,2.0,3.0,86,0.00,,,0.18,410.000000,,2013-07-07 16:01:00,
2013-07-07 10:11:00,56.0,52.0,-100.00,WSW,252,2.0,3.0,86,0.00,,,0.18,410.000000,,2013-07-07 16:11:00,
2013-07-07 10:22:00,56.0,52.0,-100.00,WSW,252,2.0,3.0,86,0.00,,,0.18,410.000000,,2013-07-07 16:22:00,
2013-07-07 10:33:00,56.0,52.0,-100.00,WSW,252,2.0,3.0,86,0.00,,,0.18,410.000000,,2013-07-07 16:33:00,
2013-07-07 11:02:00,64.0,54.0,-100.00,SW,231,2.0,3.0,71,0.00,,,-99.99,720.000000,,2013-07-07 17:02:00,
2013-07-07 11:12:00,64.0,54.0,-100.00,SW,231,2.0,3.0,71,0.00,,,-99.99,720.000000,,2013-07-07 17:12:00,
2013-07-07 11:22:00,64.0,54.0,-100.00,SW,231,2.0,3.0,71,0.00,,,-99.99,720.000000,,2013-07-07 17:22:00,
2013-07-07 11:34:00,64.0,54.0,-100.00,SW,231,2.0,3.0,71,0.00,,,-99.99,720.000000,,2013-07-07 17:34:00,
2013-07-07 12:02:00,70.0,53.0,-100.00,South,182,2.0,4.0,55,0.00,,,0.18,865.000000,,2013-07-07 18:02:00,
2013-07-07 12:11:00,70.0,53.0,-100.00,South,182,2.0,4.0,55,0.00,,,0.18,865.000000,,2013-07-07 18:11:00,
2013-07-07 12:22:00,70.0,53.0,-100.00,South,182,2.0,4.0,55,0.00,,,0.18,865.000000,,2013-07-07 18:22:00,
2013-07-07 12:33:00,70.0,53.0,-100.00,South,182,2.0,4.0,55,0.00,,,0.18,865.000000,,2013-07-07 18:33:00,
2013-07-07 13:01:00,75.0,53.0,-100.00,SSW,202,3.0,7.0,47,0.00,,,0.18,977.000000,,2013-07-07 19:01:00,
2013-07-07 13:11:00,75.0,53.0,-100.00,SSW,202,3.0,7.0,47,0.00,,,0.18,977.000000,,2013-07-07 19:11:00,
2013-07-07 13:22:00,75.0,53.0,-100.00,SSW,202,3.0,7.0,47,0.00,,,0.18,977.000000,,2013-07-07 19:22:00,
2013-07-07 13:33:00,75.0,53.0,-100.00,SSW,202,3.0,7.0,47,0.00,,,0.18,977.000000,,2013-07-07 19:33:00,
2013-07-07 14:02:00,78.0,53.0,-100.00,SW,223,5.0,11.0,42,0.00,,,0.18,955.000000,,2013-07-07 20:02:00,
2013-07-07 14:11:00,78.0,53.0,-100.00,SW,223,5.0,11.0,42,0.00,,,0.18,955.000000,,2013-07-07 20:11:00,
2013-07-07 14:22:00,78.0,53.0,-100.00,SW,223,5.0,11.0,42,0.00,,,0.18,955.000000,,2013-07-07 20:22:00,
2013-07-07 14:34:00,78.0,53.0,-100.00,SW,223,5.0,11.0,42,0.00,,,0.18,955.000000,,2013-07-07 20:34:00,
2013-07-07 15:02:00,80.0,51.0,-100.00,SW,232,5.0,12.0,36,0.00,,,0.18,1023.000000,,2013-07-07 21:02:00,
2013-07-07 15:11:00,80.0,51.0,-100.00,SW,232,5.0,12.0,36,0.00,,,0.18,1023.000000,,2013-07-07 21:11:00,
2013-07-07 15:22:00,80.0,51.0,-100.00,SW,232,5.0,12.0,36,0.00,,,0.18,1023.000000,,2013-07-07 21:22:00,
2013-07-07 15:33:00,80.0,51.0,-100.00,SW,232,5.0,12.0,36,0.00,,,0.18,1023.000000,,2013-07-07 21:33:00,
2013-07-07 16:01:00,82.0,52.0,-100.00,SSW,208,6.0,14.0,35,0.00,,,0.18,1032.000000,,2013-07-07 22:01:00,
2013-07-07 16:11:00,82.0,52.0,-100.00,SSW,208,6.0,14.0,35,0.00,,,0.18,1032.000000,,2013-07-07 22:11:00,
2013-07-07 16:22:00,82.0,52.0,-100.00,SSW,208,6.0,14.0,35,0.00,,,0.18,1032.000000,,2013-07-07 22:22:00,
2013-07-07 16:33:00,82.0,52.0,-100.00,SSW,208,6.0,14.0,35,0.00,,,0.18,1032.000000,,2013-07-07 22:33:00,
2013-07-07 17:02:00,82.0,48.0,-100.00,SW,216,7.0,18.0,31,0.00,,,-99.99,885.000000,,2013-07-07 23:02:00,
2013-07-07 17:12:00,82.0,48.0,-100.00,SW,216,7.0,18.0,31,0.00,,,-99.99,885.000000,,2013-07-07 23:12:00,
2013-07-07 17:22:00,82.0,48.0,-100.00,SW,216,7.0,18.0,31,0.00,,,-99.99,885.000000,,2013-07-07 23:22:00,
2013-07-07 17:33:00,82.0,48.0,-100.00,SW,216,7.0,18.0,31,0.00,,,-99.99,885.000000,,2013-07-07 23:33:00,
2013-07-07 18:01:00,80.0,47.0,-100.00,SW,219,7.0,16.0,32,0.00,,,0.17,438.000000,,2013-07-08 00:01:00,
2013-07-07 18:11:00,80.0,47.0,-100.00,SW,219,7.0,16.0,32,0.00,,,0.17,438.000000,,2013-07-08 00:11:00,
2013-07-07 18:22:00,80.0,47.0,-100.00,SW,219,7.0,16.0,32,0.00,,,0.17,438.000000,,2013-07-08 00:22:00,
2013-07-07 18:33:00,80.0,47.0,-100.00,SW,219,7.0,16.0,32,0.00,,,0.17,438.000000,,2013-07-08 00:33:00,
2013-07-07 19:11:00,68.0,41.0,-100.00,NNE,25,7.0,23.0,37,0.00,,,0.14,214.000000,,2013-07-08 01:11:00,
2013-07-07 19:21:00,68.0,41.0,-100.00,NNE,25,7.0,23.0,37,0.00,,,0.14,214.000000,,2013-07-08 01:21:00,
2013-07-07 20:02:00,67.0,43.0,-100.00,NNE,33,5.0,12.0,42,0.00,,,0.07,49.000000,,2013-07-08 02:02:00,
2013-07-07 20:11:00,67.0,43.0,-100.00,NNE,33,5.0,12.0,42,0.00,,,0.07,49.000000,,2013-07-08 02:11:00,
2013-07-07 20:22:00,67.0,43.0,-100.00,NNE,33,5.0,12.0,42,0.00,,,0.07,49.000000,,2013-07-08 02:22:00,
2013-07-07 20:33:00,67.0,43.0,-100.00,NNE,33,5.0,12.0,42,0.00,,,0.07,49.000000,,2013-07-08 02:33:00,
2013-07-07 21:01:00,64.0,45.0,-100.00,NNW,335,2.0,10.0,51,0.00,,,0.06,26.000000,,2013-07-08 03:01:00,
2013-07-07 21:11:00,64.0,45.0,-100.00,NNW,335,2.0,10.0,51,0.00,,,0.06,26.000000,,2013-07-08 03:11:00,
2013-07-07 21:22:00,64.0,45.0,-100.00,NNW,335,2.0,10.0,51,0.00,,,0.06,26.000000,,2013-07-08 03:22:00,
2013-07-07 21:34:00,64.0,45.0,-100.00,NNW,335,2.0,10.0,51,0.00,,,0.06,26.000000,,2013-07-08 03:34:00,
2013-07-07 22:01:00,55.0,52.0,-100.00,NNW,347,3.0,9.0,89,0.05,,,0.11,6.000000,,2013-07-08 04:01:00,
2013-07-07 22:11:00,55.0,52.0,-100.00,NNW,347,3.0,9.0,89,0.05,,,0.11,6.000000,,2013-07-08 04:11:00,
2013-07-07 22:22:00,55.0,52.0,-100.00,NNW,347,3.0,9.0,89,0.05,,,0.11,6.000000,,2013-07-08 04:22:00,
2013-07-07 22:33:00,55.0,52.0,-100.00,NNW,347,3.0,9.0,89,0.05,,,0.11,6.000000,,2013-07-08 04:33:00,
2013-07-07 23:01:00,53.0,51.0,-100.00,SE,132,0.0,8.0,94,0.00,,,0.10,0.000000,,2013-07-08 05:01:00,
2013-07-07 23:11:00,53.0,51.0,-100.00,SE,132,0.0,8.0,94,0.00,,,0.10,0.000000,,2013-07-08 05:11:00,
2013-07-07 23:22:00,53.0,51.0,-100.00,SE,132,0.0,8.0,94,0.00,,,0.10,0.000000,,2013-07-08 05:22:00,
2013-07-07 23:33:00,53.0,51.0,-100.00,SE,132,0.0,8.0,94,0.00,,,0.10,0.000000,,2013-07-08 05:33:00,